Terminal Aerodrome Forecast
Issued by NWS Duluth, MN

Home | Current Version | Previous Version | Text Only | Print | Product List | Glossary On
Versions: 1 2 3 4 5 6 7 8 9 10 11 12 13 14 15 16 17 18 19 20 21 22
924
FTUS43 KDLH 251139
TAFINL
TAF
KINL 251139Z 2512/2612 15007KT P6SM BKN250
     FM251500 19007KT P6SM SCT080 BKN250
     FM252100 20008KT P6SM BKN050
     FM260300 23004KT P6SM SCT200=

USA.gov is the U.S. government's official web portal to all federal, state and local government web resources and services.